createdAt,value
2018-05-08T00:00:48.520Z,963.82
2018-05-08T00:01:48.516Z,963.82
2018-05-08T00:02:48.519Z,963.82
2018-05-08T00:03:48.515Z,963.81
2018-05-08T00:04:48.514Z,963.81
2018-05-08T00:05:48.514Z,963.79
2018-05-08T00:06:48.518Z,963.81
2018-05-08T00:07:48.512Z,963.83
2018-05-08T00:08:48.539Z,963.86
2018-05-08T00:09:48.511Z,963.89
2018-05-08T00:10:48.509Z,963.86
2018-05-08T00:11:48.508Z,963.87
2018-05-08T00:12:48.506Z,963.79
2018-05-08T00:13:48.506Z,963.82
2018-05-08T00:14:48.505Z,963.83
2018-05-08T00:15:48.505Z,963.77
2018-05-08T00:16:48.507Z,963.81
2018-05-08T00:17:48.501Z,963.82
2018-05-08T00:18:48.501Z,963.76
2018-05-08T00:19:48.502Z,963.78
2018-05-08T00:20:48.497Z,963.76
2018-05-08T00:21:48.498Z,963.76
2018-05-08T00:22:48.497Z,963.77
2018-05-08T00:23:48.495Z,963.78
2018-05-08T00:24:48.495Z,963.76
2018-05-08T00:25:48.493Z,963.78
2018-05-08T00:26:48.497Z,963.76
2018-05-08T00:27:48.492Z,963.76
2018-05-08T00:28:48.491Z,963.74
2018-05-08T00:29:48.496Z,963.71
2018-05-08T00:30:48.489Z,963.72
2018-05-08T00:31:48.489Z,963.68
2018-05-08T00:32:48.486Z,963.71
2018-05-08T00:33:48.483Z,963.70
2018-05-08T00:34:48.490Z,963.68
2018-05-08T00:35:48.484Z,963.66
2018-05-08T00:36:49.115Z,963.68
2018-05-08T00:37:48.481Z,963.72
2018-05-08T00:38:48.478Z,963.70
2018-05-08T00:39:48.479Z,963.67
2018-05-08T00:40:48.477Z,963.67
2018-05-08T00:41:48.476Z,963.62
2018-05-08T00:42:48.475Z,963.66
2018-05-08T00:43:49.092Z,963.68
2018-05-08T00:44:48.473Z,963.60
2018-05-08T00:45:48.471Z,963.56
2018-05-08T00:46:48.531Z,963.61
2018-05-08T00:47:48.470Z,963.53
2018-05-08T00:48:48.468Z,963.56
2018-05-08T00:49:48.465Z,963.58
2018-05-08T00:50:48.465Z,963.59
2018-05-08T00:51:48.463Z,963.53
2018-05-08T00:52:48.462Z,963.57
2018-05-08T00:53:48.463Z,963.51
2018-05-08T00:54:48.461Z,963.54
2018-05-08T00:55:48.459Z,963.51
2018-05-08T00:56:48.457Z,963.52
2018-05-08T00:57:49.093Z,963.49
2018-05-08T00:58:48.458Z,963.48
2018-05-08T00:59:48.453Z,963.52
2018-05-08T01:00:48.458Z,963.48
2018-05-08T01:01:48.449Z,963.50
2018-05-08T01:02:48.451Z,963.52
2018-05-08T01:03:48.448Z,963.53
2018-05-08T01:04:48.449Z,963.48
2018-05-08T01:05:48.445Z,963.49
2018-05-08T01:06:48.443Z,963.45
2018-05-08T01:07:48.443Z,963.46
2018-05-08T01:08:49.097Z,963.46
2018-05-08T01:09:48.440Z,963.46
2018-05-08T01:10:48.438Z,963.42
2018-05-08T01:11:48.436Z,963.46
2018-05-08T01:12:48.435Z,963.45
2018-05-08T01:13:48.433Z,963.47
2018-05-08T01:14:48.432Z,963.45
2018-05-08T01:15:48.432Z,963.44
2018-05-08T01:16:48.427Z,963.47
2018-05-08T01:17:48.427Z,963.43
2018-05-08T01:18:48.426Z,963.41
2018-05-08T01:19:48.427Z,963.39
2018-05-08T01:20:48.425Z,963.38
2018-05-08T01:21:48.422Z,963.37
2018-05-08T01:22:49.095Z,963.36
2018-05-08T01:23:48.419Z,963.34
2018-05-08T01:24:48.418Z,963.36
2018-05-08T01:25:48.414Z,963.38
2018-05-08T01:26:48.413Z,963.35
2018-05-08T01:27:48.414Z,963.35
2018-05-08T01:28:48.410Z,963.34
2018-05-08T01:29:48.408Z,963.37
2018-05-08T01:30:48.407Z,963.34
2018-05-08T01:31:48.433Z,963.33
2018-05-08T01:32:48.404Z,963.36
2018-05-08T01:33:48.403Z,963.37
2018-05-08T01:34:48.400Z,963.38
2018-05-08T01:35:49.597Z,963.36
2018-05-08T01:36:48.396Z,963.39
2018-05-08T01:37:48.397Z,963.36
2018-05-08T01:38:48.395Z,963.34
2018-05-08T01:39:48.401Z,963.37
2018-05-08T01:40:48.391Z,963.40
2018-05-08T01:41:48.388Z,963.37
2018-05-08T01:42:48.387Z,963.35
2018-05-08T01:43:48.386Z,963.34
2018-05-08T01:44:48.382Z,963.33
2018-05-08T01:45:48.382Z,963.36
2018-05-08T01:46:48.382Z,963.39
2018-05-08T01:47:48.385Z,963.35
2018-05-08T01:48:48.378Z,963.32
2018-05-08T01:49:48.374Z,963.34
2018-05-08T01:50:48.374Z,963.31
2018-05-08T01:51:48.380Z,963.29
2018-05-08T01:52:48.370Z,963.33
2018-05-08T01:53:48.369Z,963.31
2018-05-08T01:54:48.368Z,963.28
2018-05-08T01:55:48.365Z,963.32
2018-05-08T01:56:48.371Z,963.34
2018-05-08T01:57:48.364Z,963.30
2018-05-08T01:58:48.392Z,963.30
2018-05-08T01:59:48.359Z,963.32
2018-05-08T02:00:48.356Z,963.33
2018-05-08T02:01:48.354Z,963.34
2018-05-08T02:02:48.352Z,963.32
2018-05-08T02:03:48.351Z,963.31
2018-05-08T02:04:48.350Z,963.26
2018-05-08T02:05:48.349Z,963.28
2018-05-08T02:06:48.347Z,963.28
2018-05-08T02:07:50.103Z,963.22
2018-05-08T02:08:48.342Z,963.22
2018-05-08T02:09:48.341Z,963.26
2018-05-08T02:10:48.338Z,963.26
2018-05-08T02:11:48.337Z,963.24
2018-05-08T02:12:48.337Z,963.23
2018-05-08T02:13:48.333Z,963.22
2018-05-08T02:14:48.329Z,963.19
2018-05-08T02:15:48.329Z,963.15
2018-05-08T02:16:49.102Z,963.16
2018-05-08T02:17:48.325Z,963.12
2018-05-08T02:18:48.324Z,963.11
2018-05-08T02:19:48.322Z,963.14
2018-05-08T02:20:48.324Z,963.15
2018-05-08T02:21:48.322Z,963.13
2018-05-08T02:22:48.315Z,963.16
2018-05-08T02:23:48.315Z,963.20
2018-05-08T02:24:48.321Z,963.16
2018-05-08T02:25:48.317Z,963.14
2018-05-08T02:26:48.308Z,963.16
2018-05-08T02:27:48.308Z,963.15
2018-05-08T02:28:48.304Z,963.10
2018-05-08T02:29:48.303Z,963.10
2018-05-08T02:30:48.300Z,963.12
2018-05-08T02:31:48.302Z,963.11
2018-05-08T02:32:48.296Z,963.05
2018-05-08T02:33:48.293Z,963.02
2018-05-08T02:34:48.294Z,963.05
2018-05-08T02:35:48.291Z,963.03
2018-05-08T02:36:48.289Z,963.03
2018-05-08T02:37:48.288Z,963.02
2018-05-08T02:38:48.287Z,963.01
2018-05-08T02:39:48.283Z,963.01
2018-05-08T02:40:48.286Z,962.99
2018-05-08T02:41:48.279Z,962.99
2018-05-08T02:42:48.278Z,962.97
2018-05-08T02:43:48.275Z,962.94
2018-05-08T02:44:49.104Z,962.95
2018-05-08T02:45:48.270Z,962.95
2018-05-08T02:46:48.269Z,962.95
2018-05-08T02:47:48.266Z,962.94
2018-05-08T02:48:48.264Z,962.95
2018-05-08T02:49:48.263Z,962.97
2018-05-08T02:50:48.260Z,962.95
2018-05-08T02:51:48.259Z,962.93
2018-05-08T02:52:48.256Z,962.91
2018-05-08T02:53:48.257Z,962.96
2018-05-08T02:54:48.252Z,962.97
2018-05-08T02:55:48.251Z,962.99
2018-05-08T02:56:48.247Z,962.93
2018-05-08T02:57:48.251Z,962.91
2018-05-08T02:58:48.241Z,962.93
2018-05-08T02:59:48.240Z,962.93
2018-05-08T03:00:48.239Z,962.92
2018-05-08T03:01:48.235Z,962.91
2018-05-08T03:02:48.235Z,962.92
2018-05-08T03:03:48.235Z,962.92
2018-05-08T03:04:48.239Z,962.93
2018-05-08T03:05:48.230Z,962.92
2018-05-08T03:06:48.228Z,962.91
2018-05-08T03:07:48.227Z,962.92
2018-05-08T03:08:48.222Z,962.93
2018-05-08T03:09:48.223Z,962.98
2018-05-08T03:10:48.217Z,962.95
2018-05-08T03:11:48.216Z,962.96
2018-05-08T03:12:48.213Z,962.91
2018-05-08T03:13:48.210Z,962.90
2018-05-08T03:14:48.208Z,962.85
2018-05-08T03:15:48.208Z,962.88
2018-05-08T03:16:48.204Z,962.84
2018-05-08T03:17:48.203Z,962.87
2018-05-08T03:18:48.198Z,962.85
2018-05-08T03:19:48.199Z,962.85
2018-05-08T03:20:48.195Z,962.86
2018-05-08T03:21:48.194Z,962.88
2018-05-08T03:22:48.192Z,962.85
2018-05-08T03:23:48.190Z,962.89
2018-05-08T03:24:48.185Z,962.87
2018-05-08T03:25:48.183Z,962.90
2018-05-08T03:26:48.181Z,962.91
2018-05-08T03:27:48.181Z,962.92
2018-05-08T03:28:48.177Z,962.88
2018-05-08T03:29:48.176Z,962.87
2018-05-08T03:30:48.174Z,962.91
2018-05-08T03:31:48.170Z,962.85
2018-05-08T03:32:48.168Z,962.87
2018-05-08T03:33:48.166Z,962.85
2018-05-08T03:34:48.167Z,962.87
2018-05-08T03:35:48.162Z,962.83
2018-05-08T03:36:48.159Z,962.84
2018-05-08T03:37:48.157Z,962.80
2018-05-08T03:38:48.155Z,962.80
2018-05-08T03:39:48.151Z,962.83
2018-05-08T03:40:48.154Z,962.79
2018-05-08T03:41:48.149Z,962.82
2018-05-08T03:42:48.159Z,962.82
2018-05-08T03:43:48.143Z,962.84
2018-05-08T03:44:48.142Z,962.80
2018-05-08T03:45:48.142Z,962.84
2018-05-08T03:46:48.138Z,962.78
2018-05-08T03:47:48.132Z,962.80
2018-05-08T03:48:48.138Z,962.73
2018-05-08T03:49:48.130Z,962.80
2018-05-08T03:50:48.128Z,962.76
2018-05-08T03:51:48.126Z,962.78
2018-05-08T03:52:48.123Z,962.73
2018-05-08T03:53:48.131Z,962.74
2018-05-08T03:54:48.128Z,962.76
2018-05-08T03:55:48.189Z,962.77
2018-05-08T03:56:48.114Z,962.72
2018-05-08T03:57:48.152Z,962.74
2018-05-08T03:58:48.110Z,962.71
2018-05-08T03:59:48.141Z,962.76
2018-05-08T04:00:48.105Z,962.68
2018-05-08T04:01:48.102Z,962.74
2018-05-08T04:02:48.101Z,962.67
2018-05-08T04:03:48.097Z,962.69
2018-05-08T04:04:48.095Z,962.71
2018-05-08T04:05:48.091Z,962.72
2018-05-08T04:06:48.089Z,962.69
2018-05-08T04:07:48.088Z,962.67
2018-05-08T04:08:48.084Z,962.67
2018-05-08T04:09:48.082Z,962.68
2018-05-08T04:10:48.080Z,962.66
2018-05-08T04:11:48.077Z,962.68
2018-05-08T04:12:48.074Z,962.67
2018-05-08T04:13:48.073Z,962.65
2018-05-08T04:14:48.072Z,962.66
2018-05-08T04:15:48.068Z,962.64
2018-05-08T04:16:48.065Z,962.64
2018-05-08T04:17:48.063Z,962.61
2018-05-08T04:18:48.062Z,962.59
2018-05-08T04:19:48.059Z,962.59
2018-05-08T04:20:48.055Z,962.55
2018-05-08T04:21:48.052Z,962.51
2018-05-08T04:22:48.050Z,962.51
2018-05-08T04:23:48.053Z,962.52
2018-05-08T04:24:48.086Z,962.53
2018-05-08T04:25:48.043Z,962.49
2018-05-08T04:26:48.042Z,962.48
2018-05-08T04:27:48.040Z,962.53
2018-05-08T04:28:48.036Z,962.48
2018-05-08T04:29:48.037Z,962.52
2018-05-08T04:30:48.041Z,962.48
2018-05-08T04:31:48.033Z,962.54
2018-05-08T04:32:48.032Z,962.51
2018-05-08T04:33:48.026Z,962.51
2018-05-08T04:34:48.025Z,962.54
2018-05-08T04:35:48.022Z,962.54
2018-05-08T04:36:48.018Z,962.54
2018-05-08T04:37:48.015Z,962.56
2018-05-08T04:38:48.018Z,962.54
2018-05-08T04:39:48.015Z,962.51
2018-05-08T04:40:48.014Z,962.56
2018-05-08T04:41:48.006Z,962.50
2018-05-08T04:42:48.005Z,962.51
2018-05-08T04:43:48.007Z,962.50
2018-05-08T04:44:48.003Z,962.53
2018-05-08T04:45:48.001Z,962.55
2018-05-08T04:46:47.997Z,962.51
2018-05-08T04:47:47.995Z,962.55
2018-05-08T04:48:47.993Z,962.55
2018-05-08T04:49:47.991Z,962.53
2018-05-08T04:50:47.988Z,962.52
2018-05-08T04:51:48.007Z,962.52
2018-05-08T04:52:47.985Z,962.50
2018-05-08T04:53:47.983Z,962.49
2018-05-08T04:54:47.981Z,962.52
2018-05-08T04:55:48.057Z,962.53
2018-05-08T04:56:47.976Z,962.50
2018-05-08T04:57:47.974Z,962.49
2018-05-08T04:58:47.973Z,962.49
2018-05-08T04:59:47.971Z,962.50
2018-05-08T05:00:47.997Z,962.52
2018-05-08T05:01:48.670Z,962.50
2018-05-08T05:02:48.054Z,962.46
2018-05-08T05:03:47.965Z,962.50
2018-05-08T05:04:48.619Z,962.53
2018-05-08T05:05:47.962Z,962.46
2018-05-08T05:06:47.964Z,962.43
2018-05-08T05:07:47.956Z,962.50
2018-05-08T05:08:47.959Z,962.47
2018-05-08T05:09:47.953Z,962.50
2018-05-08T05:10:47.955Z,962.48
2018-05-08T05:11:47.951Z,962.46
2018-05-08T05:12:47.948Z,962.41
2018-05-08T05:13:47.959Z,962.46
2018-05-08T05:14:47.948Z,962.45
2018-05-08T05:15:47.941Z,962.45
2018-05-08T05:16:48.007Z,962.42
2018-05-08T05:17:47.939Z,962.44
2018-05-08T05:18:47.938Z,962.40
2018-05-08T05:19:47.935Z,962.43
2018-05-08T05:20:47.935Z,962.39
2018-05-08T05:21:47.932Z,962.36
2018-05-08T05:22:47.932Z,962.37
2018-05-08T05:23:47.933Z,962.39
2018-05-08T05:24:47.928Z,962.41
2018-05-08T05:25:47.927Z,962.43
2018-05-08T05:26:47.929Z,962.43
2018-05-08T05:27:47.926Z,962.42
2018-05-08T05:28:47.923Z,962.39
2018-05-08T05:29:47.918Z,962.44
2018-05-08T05:30:47.921Z,962.40
2018-05-08T05:31:47.920Z,962.42
2018-05-08T05:32:47.917Z,962.42
2018-05-08T05:33:47.965Z,962.39
2018-05-08T05:34:47.915Z,962.40
2018-05-08T05:35:47.915Z,962.35
2018-05-08T05:36:47.913Z,962.40
2018-05-08T05:37:47.913Z,962.42
2018-05-08T05:38:47.911Z,962.35
2018-05-08T05:39:47.910Z,962.37
2018-05-08T05:40:47.909Z,962.37
2018-05-08T05:41:47.908Z,962.33
2018-05-08T05:42:47.933Z,962.36
2018-05-08T05:43:47.907Z,962.33
2018-05-08T05:44:47.908Z,962.33
2018-05-08T05:45:47.904Z,962.34
2018-05-08T05:46:47.906Z,962.35
2018-05-08T05:47:47.902Z,962.36
2018-05-08T05:48:47.904Z,962.36
2018-05-08T05:49:47.903Z,962.34
2018-05-08T05:50:47.903Z,962.32
2018-05-08T05:51:47.903Z,962.35
2018-05-08T05:52:47.901Z,962.31
2018-05-08T05:53:47.899Z,962.34
2018-05-08T05:54:47.900Z,962.25
2018-05-08T05:55:47.902Z,962.27
2018-05-08T05:56:47.900Z,962.31
2018-05-08T05:57:47.900Z,962.28
2018-05-08T05:58:47.900Z,962.29
2018-05-08T05:59:48.624Z,962.27
2018-05-08T06:00:47.902Z,962.26
2018-05-08T06:01:47.898Z,962.29
2018-05-08T06:02:47.942Z,962.28
2018-05-08T06:03:47.900Z,962.31
2018-05-08T06:04:47.901Z,962.31
2018-05-08T06:05:47.901Z,962.31
2018-05-08T06:06:47.901Z,962.29
2018-05-08T06:07:47.903Z,962.30
2018-05-08T06:08:47.902Z,962.30
2018-05-08T06:09:47.904Z,962.34
2018-05-08T06:10:47.907Z,962.35
2018-05-08T06:11:47.909Z,962.31
2018-05-08T06:12:47.911Z,962.31
2018-05-08T06:13:47.915Z,962.33
2018-05-08T06:14:48.685Z,962.38
2018-05-08T06:15:47.919Z,962.39
2018-05-08T06:16:47.921Z,962.34
2018-05-08T06:17:47.926Z,962.30
2018-05-08T06:18:47.929Z,962.33
2018-05-08T06:19:47.933Z,962.29
2018-05-08T06:20:47.939Z,962.33
2018-05-08T06:21:47.941Z,962.31
2018-05-08T06:22:47.946Z,962.33
2018-05-08T06:23:47.990Z,962.38
2018-05-08T06:24:47.955Z,962.37
2018-05-08T06:25:47.959Z,962.34
2018-05-08T06:26:47.963Z,962.36
2018-05-08T06:27:47.967Z,962.38
2018-05-08T06:28:47.996Z,962.43
2018-05-08T06:29:47.979Z,962.39
2018-05-08T06:30:47.984Z,962.44
2018-05-08T06:31:48.633Z,962.43
2018-05-08T06:32:47.998Z,962.45
2018-05-08T06:33:47.997Z,962.46
2018-05-08T06:34:48.006Z,962.42
2018-05-08T06:35:48.010Z,962.40
2018-05-08T06:36:48.018Z,962.38
2018-05-08T06:37:48.023Z,962.41
2018-05-08T06:38:48.029Z,962.40
2018-05-08T06:39:48.036Z,962.40
2018-05-08T06:40:48.049Z,962.38
2018-05-08T06:41:48.052Z,962.39
2018-05-08T06:42:48.054Z,962.40
2018-05-08T06:43:48.064Z,962.39
2018-05-08T06:44:48.067Z,962.37
2018-05-08T06:45:48.079Z,962.42
2018-05-08T06:46:48.635Z,962.37
2018-05-08T06:47:48.086Z,962.41
2018-05-08T06:48:48.094Z,962.43
2018-05-08T06:49:48.107Z,962.45
2018-05-08T06:50:48.635Z,962.46
2018-05-08T06:51:48.114Z,962.44
2018-05-08T06:52:48.122Z,962.50
2018-05-08T06:53:48.129Z,962.49
2018-05-08T06:54:48.724Z,962.52
2018-05-08T06:55:48.144Z,962.53
2018-05-08T06:56:48.151Z,962.59
2018-05-08T06:57:48.158Z,962.57
2018-05-08T06:58:48.169Z,962.59
2018-05-08T06:59:48.180Z,962.62
2018-05-08T07:00:48.183Z,962.60
2018-05-08T07:01:48.196Z,962.58
2018-05-08T07:02:48.197Z,962.56
2018-05-08T07:03:49.140Z,962.58
2018-05-08T07:04:48.212Z,962.58
2018-05-08T07:05:48.248Z,962.64
2018-05-08T07:06:48.226Z,962.62
2018-05-08T07:07:48.236Z,962.62
2018-05-08T07:08:49.142Z,962.58
2018-05-08T07:09:48.249Z,962.60
2018-05-08T07:10:48.260Z,962.57
2018-05-08T07:11:48.268Z,962.54
2018-05-08T07:12:48.275Z,962.53
2018-05-08T07:13:48.282Z,962.55
2018-05-08T07:14:48.293Z,962.62
2018-05-08T07:15:48.391Z,962.53
2018-05-08T07:16:48.306Z,962.55
2018-05-08T07:17:48.317Z,962.53
2018-05-08T07:18:48.325Z,962.49
2018-05-08T07:19:48.334Z,962.51
2018-05-08T07:20:48.340Z,962.54
2018-05-08T07:21:48.349Z,962.48
2018-05-08T07:22:48.358Z,962.48
2018-05-08T07:23:48.368Z,962.43
2018-05-08T07:24:48.376Z,962.46
2018-05-08T07:25:48.390Z,962.50
2018-05-08T07:26:48.397Z,962.46
2018-05-08T07:27:48.404Z,962.46
2018-05-08T07:28:48.410Z,962.42
2018-05-08T07:29:48.421Z,962.49
2018-05-08T07:30:48.429Z,962.46
2018-05-08T07:31:48.441Z,962.49
2018-05-08T07:32:48.449Z,962.50
2018-05-08T07:33:48.458Z,962.51
2018-05-08T07:34:48.468Z,962.47
2018-05-08T07:35:48.476Z,962.41
2018-05-08T07:36:48.485Z,962.48
2018-05-08T07:37:48.495Z,962.48
2018-05-08T07:38:48.506Z,962.48
2018-05-08T07:39:48.516Z,962.51
2018-05-08T07:40:48.525Z,962.52
2018-05-08T07:41:48.535Z,962.52
2018-05-08T07:42:48.544Z,962.50
2018-05-08T07:43:48.561Z,962.49
2018-05-08T07:44:48.565Z,962.50
2018-05-08T07:45:48.576Z,962.50
2018-05-08T07:46:48.585Z,962.49
2018-05-08T07:47:48.595Z,962.47
2018-05-08T07:48:48.605Z,962.50
2018-05-08T07:49:48.615Z,962.49
2018-05-08T07:50:48.626Z,962.45
2018-05-08T07:51:48.711Z,962.47
2018-05-08T07:52:48.647Z,962.48
2018-05-08T07:53:48.658Z,962.49
2018-05-08T07:54:48.672Z,962.46
2018-05-08T07:55:49.661Z,962.51
2018-05-08T07:56:48.692Z,962.45
2018-05-08T07:57:48.709Z,962.43
2018-05-08T07:58:48.711Z,962.46
2018-05-08T07:59:48.731Z,962.48
2018-05-08T08:00:48.734Z,962.50
2018-05-08T08:01:48.747Z,962.50
2018-05-08T08:02:49.659Z,962.50
2018-05-08T08:03:48.769Z,962.49
2018-05-08T08:04:48.780Z,962.53
2018-05-08T08:05:48.792Z,962.46
2018-05-08T08:06:48.804Z,962.47
2018-05-08T08:07:48.816Z,962.49
2018-05-08T08:08:48.827Z,962.49
2018-05-08T08:09:48.838Z,962.48
2018-05-08T08:10:48.852Z,962.50
2018-05-08T08:11:48.864Z,962.44
2018-05-08T08:12:48.875Z,962.46
2018-05-08T08:13:48.887Z,962.47
2018-05-08T08:14:48.899Z,962.42
2018-05-08T08:15:48.910Z,962.39
2018-05-08T08:16:48.924Z,962.33
2018-05-08T08:17:48.933Z,962.34
2018-05-08T08:18:48.944Z,962.37
2018-05-08T08:19:48.958Z,962.34
2018-05-08T08:20:48.966Z,962.33
2018-05-08T08:21:48.980Z,962.33
2018-05-08T08:22:48.989Z,962.29
2018-05-08T08:23:49.071Z,962.27
2018-05-08T08:24:49.009Z,962.30
2018-05-08T08:25:49.019Z,962.30
2018-05-08T08:26:49.030Z,962.30
2018-05-08T08:27:49.042Z,962.29
2018-05-08T08:28:49.053Z,962.30
2018-05-08T08:29:49.076Z,962.23
2018-05-08T08:30:49.073Z,962.23
2018-05-08T08:31:49.080Z,962.27
2018-05-08T08:32:49.090Z,962.26
2018-05-08T08:33:49.100Z,962.22
2018-05-08T08:34:49.109Z,962.22
2018-05-08T08:35:49.117Z,962.18
2018-05-08T08:36:49.130Z,962.18
2018-05-08T08:37:49.135Z,962.14
2018-05-08T08:38:49.144Z,962.14
2018-05-08T08:39:49.153Z,962.09
2018-05-08T08:40:49.179Z,962.16
2018-05-08T08:41:49.170Z,962.17
2018-05-08T08:42:49.180Z,962.15
2018-05-08T08:43:49.191Z,962.16
2018-05-08T08:44:49.194Z,962.10
2018-05-08T08:45:49.204Z,962.06
2018-05-08T08:46:49.211Z,962.04
2018-05-08T08:47:49.227Z,962.07
2018-05-08T08:48:49.227Z,962.08
2018-05-08T08:49:49.235Z,962.07
2018-05-08T08:50:49.242Z,962.06
2018-05-08T08:51:49.251Z,962.06
2018-05-08T08:52:49.258Z,962.05
2018-05-08T08:53:49.268Z,962.07
2018-05-08T08:54:49.388Z,962.05
2018-05-08T08:55:49.281Z,962.05
2018-05-08T08:56:49.326Z,962.08
2018-05-08T08:57:49.298Z,962.01
2018-05-08T08:58:49.304Z,962.04
2018-05-08T08:59:49.311Z,962.00
2018-05-08T09:00:49.318Z,962.03
2018-05-08T09:01:49.325Z,962.06
2018-05-08T09:02:49.334Z,962.06
2018-05-08T09:03:49.342Z,962.07
2018-05-08T09:04:49.348Z,962.05
2018-05-08T09:05:49.354Z,961.99
2018-05-08T09:06:49.363Z,962.03
2018-05-08T09:07:49.374Z,962.02
2018-05-08T09:08:49.381Z,961.99
2018-05-08T09:09:50.182Z,962.00
2018-05-08T09:10:49.395Z,962.04
2018-05-08T09:11:49.403Z,962.01
2018-05-08T09:12:49.413Z,962.03
2018-05-08T09:13:49.435Z,962.02
2018-05-08T09:14:49.444Z,961.98
2018-05-08T09:15:49.431Z,962.01
2018-05-08T09:16:49.437Z,961.95
2018-05-08T09:17:49.444Z,961.98
2018-05-08T09:18:51.187Z,962.00
2018-05-08T09:19:49.521Z,961.93
2018-05-08T09:20:49.466Z,962.01
2018-05-08T09:21:49.474Z,961.96
2018-05-08T09:22:49.480Z,961.97
2018-05-08T09:23:49.488Z,961.91
2018-05-08T09:24:49.496Z,961.93
2018-05-08T09:25:49.501Z,961.87
2018-05-08T09:26:49.509Z,961.82
2018-05-08T09:27:49.597Z,961.85
2018-05-08T09:28:49.523Z,961.83
2018-05-08T09:29:49.530Z,961.80
2018-05-08T09:30:49.538Z,961.75
2018-05-08T09:31:49.545Z,961.71
2018-05-08T09:32:49.576Z,961.72
2018-05-08T09:33:49.559Z,961.76
2018-05-08T09:34:49.571Z,961.75
2018-05-08T09:35:49.575Z,961.73
2018-05-08T09:36:49.581Z,961.76
2018-05-08T09:37:49.589Z,961.70
2018-05-08T09:38:49.595Z,961.69
2018-05-08T09:39:49.603Z,961.66
2018-05-08T09:40:49.646Z,961.69
2018-05-08T09:41:49.616Z,961.60
2018-05-08T09:42:49.626Z,961.64
2018-05-08T09:43:49.635Z,961.63
2018-05-08T09:44:49.640Z,961.62
2018-05-08T09:45:49.646Z,961.57
2018-05-08T09:46:49.653Z,961.59
2018-05-08T09:47:49.659Z,961.59
2018-05-08T09:48:49.672Z,961.58
2018-05-08T09:49:49.679Z,961.59
2018-05-08T09:50:50.199Z,961.59
2018-05-08T09:51:50.197Z,961.59
2018-05-08T09:52:49.696Z,961.63
2018-05-08T09:53:49.702Z,961.64
2018-05-08T09:54:49.711Z,961.64
2018-05-08T09:55:49.717Z,961.64
2018-05-08T09:56:49.724Z,961.63
2018-05-08T09:57:49.731Z,961.55
2018-05-08T09:58:49.747Z,961.61
2018-05-08T09:59:49.747Z,961.55
2018-05-08T10:00:49.754Z,961.52
2018-05-08T10:01:49.760Z,961.62
2018-05-08T10:02:49.773Z,961.54
2018-05-08T10:03:49.779Z,961.49
2018-05-08T10:04:49.782Z,961.47
2018-05-08T10:05:49.788Z,961.50
2018-05-08T10:06:49.795Z,961.45
2018-05-08T10:07:49.802Z,961.49
2018-05-08T10:08:49.809Z,961.46
2018-05-08T10:09:49.817Z,961.40
2018-05-08T10:10:49.824Z,961.39
2018-05-08T10:11:49.834Z,961.41
2018-05-08T10:12:49.838Z,961.41
2018-05-08T10:13:49.846Z,961.38
2018-05-08T10:14:49.856Z,961.36
2018-05-08T10:15:49.860Z,961.39
2018-05-08T10:16:49.866Z,961.38
2018-05-08T10:17:49.874Z,961.37
2018-05-08T10:18:49.882Z,961.32
2018-05-08T10:19:49.890Z,961.32
2018-05-08T10:20:49.897Z,961.31
2018-05-08T10:21:49.903Z,961.27
2018-05-08T10:22:49.911Z,961.20
2018-05-08T10:23:49.920Z,961.19
2018-05-08T10:24:49.925Z,961.17
2018-05-08T10:25:49.932Z,961.16
2018-05-08T10:26:50.030Z,961.16
2018-05-08T10:27:49.948Z,961.19
2018-05-08T10:28:50.707Z,961.18
2018-05-08T10:29:49.961Z,961.13
2018-05-08T10:30:49.970Z,961.14
2018-05-08T10:31:49.976Z,961.14
2018-05-08T10:32:49.981Z,961.06
2018-05-08T10:33:49.990Z,961.05
2018-05-08T10:34:49.998Z,961.00
2018-05-08T10:35:50.012Z,961.00
2018-05-08T10:36:50.013Z,961.02
2018-05-08T10:37:50.021Z,961.04
2018-05-08T10:38:50.032Z,961.05
2018-05-08T10:39:50.036Z,960.96
2018-05-08T10:40:50.045Z,960.97
2018-05-08T10:41:50.079Z,961.00
2018-05-08T10:42:50.077Z,961.04
2018-05-08T10:43:50.065Z,961.01
2018-05-08T10:44:50.070Z,960.95
2018-05-08T10:45:50.091Z,960.96
2018-05-08T10:46:50.087Z,960.91
2018-05-08T10:47:50.092Z,961.01
2018-05-08T10:48:50.101Z,960.98
2018-05-08T10:49:50.711Z,960.97
2018-05-08T10:50:50.115Z,961.01
2018-05-08T10:51:50.143Z,960.99
2018-05-08T10:52:50.130Z,961.00
2018-05-08T10:53:50.136Z,960.95
2018-05-08T10:54:50.144Z,960.95
2018-05-08T10:55:50.217Z,960.91
2018-05-08T10:56:50.158Z,960.93
2018-05-08T10:57:50.163Z,960.91
2018-05-08T10:58:50.174Z,960.87
2018-05-08T10:59:50.177Z,960.94
2018-05-08T11:00:51.217Z,960.83
2018-05-08T11:01:50.270Z,960.85
2018-05-08T11:02:50.201Z,960.89
2018-05-08T11:03:50.209Z,960.82
2018-05-08T11:04:50.217Z,960.83
2018-05-08T11:05:50.223Z,960.80
2018-05-08T11:06:50.232Z,960.83
2018-05-08T11:07:50.245Z,960.80
2018-05-08T11:08:50.251Z,960.77
2018-05-08T11:09:50.253Z,960.75
2018-05-08T11:10:50.261Z,960.79
2018-05-08T11:11:50.268Z,960.80
2018-05-08T11:12:50.273Z,960.83
2018-05-08T11:13:50.282Z,960.78
2018-05-08T11:14:50.290Z,960.71
2018-05-08T11:15:50.305Z,960.79
2018-05-08T11:16:50.302Z,960.81
2018-05-08T11:17:50.312Z,960.81
2018-05-08T11:18:50.322Z,960.81
2018-05-08T11:19:50.445Z,960.74
2018-05-08T11:20:50.337Z,960.76
2018-05-08T11:21:50.340Z,960.75
2018-05-08T11:22:50.348Z,960.73
2018-05-08T11:23:50.356Z,960.71
2018-05-08T11:24:50.364Z,960.70
2018-05-08T11:25:50.369Z,960.61
2018-05-08T11:26:50.407Z,960.63
2018-05-08T11:27:50.398Z,960.55
2018-05-08T11:28:50.393Z,960.57
2018-05-08T11:29:50.409Z,960.51
2018-05-08T11:30:50.407Z,960.57
2018-05-08T11:31:50.414Z,960.54
2018-05-08T11:32:50.421Z,960.53
2018-05-08T11:33:50.428Z,960.50
2018-05-08T11:34:50.436Z,960.50
2018-05-08T11:35:50.448Z,960.55
2018-05-08T11:36:50.451Z,960.53
2018-05-08T11:37:50.459Z,960.48
2018-05-08T11:38:51.285Z,960.42
2018-05-08T11:39:50.475Z,960.37
2018-05-08T11:40:50.480Z,960.36
2018-05-08T11:41:50.489Z,960.40
2018-05-08T11:42:50.567Z,960.40
2018-05-08T11:43:50.502Z,960.39
2018-05-08T11:44:50.532Z,960.38
2018-05-08T11:45:50.516Z,960.33
2018-05-08T11:46:50.525Z,960.29
2018-05-08T11:47:51.287Z,960.29
2018-05-08T11:48:50.538Z,960.28
2018-05-08T11:49:50.550Z,960.22
2018-05-08T11:50:50.562Z,960.24
2018-05-08T11:51:50.560Z,960.35
2018-05-08T11:52:50.571Z,960.28
2018-05-08T11:53:50.576Z,960.28
2018-05-08T11:54:50.584Z,960.28
2018-05-08T11:55:50.592Z,960.20
2018-05-08T11:56:50.599Z,960.18
2018-05-08T11:57:50.610Z,960.17
2018-05-08T11:58:50.614Z,960.09
2018-05-08T11:59:50.622Z,960.10
2018-05-08T12:00:50.687Z,960.12
2018-05-08T12:01:50.676Z,960.06
2018-05-08T12:02:50.645Z,960.06
2018-05-08T12:03:50.676Z,960.05
2018-05-08T12:04:50.658Z,960.08
2018-05-08T12:05:50.665Z,960.04
2018-05-08T12:06:50.673Z,960.01
2018-05-08T12:07:50.681Z,960.05
2018-05-08T12:08:50.688Z,960.04
2018-05-08T12:09:50.696Z,960.04
2018-05-08T12:10:50.703Z,960.01
2018-05-08T12:11:50.757Z,960.00
2018-05-08T12:12:50.718Z,960.04
2018-05-08T12:13:51.239Z,960.05
2018-05-08T12:14:50.814Z,960.06
2018-05-08T12:15:50.741Z,960.03
2018-05-08T12:16:50.749Z,959.98
2018-05-08T12:17:50.757Z,959.96
2018-05-08T12:18:50.765Z,959.92
2018-05-08T12:19:50.772Z,959.88
2018-05-08T12:20:50.820Z,959.85
2018-05-08T12:21:50.902Z,959.85
2018-05-08T12:22:50.795Z,959.84
2018-05-08T12:23:50.801Z,959.75
2018-05-08T12:24:50.813Z,959.78
2018-05-08T12:25:50.815Z,959.78
2018-05-08T12:26:51.741Z,959.77
2018-05-08T12:27:50.863Z,959.82
2018-05-08T12:28:50.839Z,959.71